Fernando de Noronha, Brazil
Current Conditions -  °F | °C
As of 5:00 PM on Friday 24 Oct 2014 (Local Time) from SBFN Reporting Station
Few Clouds Few Clouds  
Wind Chill: 81°   Ceiling: Unl
Heat Index: 84°   Visibility: 6mi
Dew Point: 70°   Wind: 15mph
Humidity: 70%   Direction: 120°ESE
Pressure: 29.88"   Gusts: NA
Location:  3.86°S, 32.44°W
Report Text: SBFN 241900Z 12013KT 9999 FEW021 27/21 Q1012
Loading
Personal Weather Stations






























Interactive Weather Map
Tropical Storm Tracking
New forecast layout! Learn more

10-Day Weather Forecast

Advertisements
Track Severe Weather on mobile